Terminal Aerodrome Forecast
Issued by NWS

Home | Current Version | Previous Version | Graphics & Text | Print | Product List | Glossary On
Versions: 1 2 3 4 5 6 7 8 9 10 11 12 13 14 15 16 17 18 19 20 21
000
FTUS43 KIWX 210031 AAA
TAFSBN
TAF AMD
KSBN 210031Z 2101/2124 15004KT 3SM -DZ BR OVC003
      TEMPO 2101/2103 2SM BR SCT003 OVC018
     FM210300 14005KT 3SM BR SCT005 OVC015
      TEMPO 2103/2105 1 1/2SM -DZ BR BKN005
     FM210500 15006KT 2SM BR VCSH OVC005
     FM210900 16007KT 3SM BR OVC007
     FM211600 16009KT 6SM BR BKN020=

USA.gov is the U.S. government's official web portal to all federal, state and local government web resources and services.